CW6467 Weather Reports


Display with metric or nautical units.
time (UTC)temp
F
wind
direction
speed
MPH
gust
MPH
rain 1hr
in
rain 24hr
in
rain mn
in
humidity
%
barometer
mb
20210614182807 84 25 11.0 11.0 0.00 0.00 0.00 28 983.0
20210614175836 82 60 11.0 15.0 0.00 0.00 0.00 30 983.1
20210614172806 81 25 6.0 13.0 0.00 0.00 0.00 32 983.5
20210614165806 81 275 2.0 12.0 0.00 0.00 0.00 38 983.9
20210614162807 79 44 4.0 11.0 0.00 0.00 0.00 39 984.0
20210614155837 78 309 2.0 9.0 0.00 0.00 0.00 43 984.1
20210614152806 77 59 5.0 10.0 0.00 0.00 0.00 47 984.0
20210614145837 74 360 5.0 11.0 0.00 0.00 0.00 51 984.0
20210614142806 72 67 10.0 13.0 0.00 0.00 0.00 52 984.0
20210614135836 71 36 7.0 10.0 0.00 0.00 0.00 57 983.7
20210614132806 69 50 2.0 12.0 0.00 0.00 0.00 62 983.4
20210614125806 67 58 5.0 13.0 0.00 0.00 0.00 64 982.9
20210614122806 66 52 3.0 11.0 0.00 0.00 0.00 67 982.7
20210614115806 64 9 11.0 11.0 0.00 0.00 0.00 72 982.1
20210614112806 63 42 4.0 11.0 0.00 0.00 0.00 75 981.5
20210614105836 65 80 7.0 9.0 0.00 0.00 0.00 75 981.4
20210614102807 68 105 2.0 4.0 0.00 0.00 0.00 62 980.6
20210614095837 70 121 1.0 8.0 0.00 0.00 0.00 59 979.9
20210614092807 70 222 2.0 6.0 0.00 0.00 0.00 60 979.6
20210614085806 71 207 3.0 10.0 0.00 0.00 0.00 57 979.2
20210614082807 73 207 3.0 11.0 0.00 0.00 0.00 51 979.0
20210614075806 74 221 4.0 11.0 0.00 0.00 0.00 48 978.9
20210614072807 73 209 1.0 6.0 0.00 0.00 0.00 51 978.7
20210614065806 71 209 1.0 3.0 0.00 0.00 0.00 55 978.9
20210614062807 69 218 0.0 2.0 0.00 0.00 0.00 60 979.1
20210614055837 70 214 0.0 2.0 0.00 0.00 0.00 61 979.5
20210614052806 69 215 1.0 2.0 0.00 0.00 0.00 67 979.7
20210614045836 68 215 0.0 1.0 0.00 0.00 0.00 67 980.2
20210614042807 68 215 0.0 2.0 0.00 0.00 0.00 69 980.5
20210614035836 68 215 1.0 2.0 0.00 0.00 0.00 71 980.8
20210614032836 68 215 0.0 1.0 0.00 0.00 0.00 70 981.2
20210614025837 70 274 1.0 1.0 0.00 0.00 0.00 65 981.6
20210614022806 72 274 0.0 1.0 0.00 0.00 0.00 60 981.4
20210614015837 74 275 0.0 1.0 0.00 0.00 0.00 51 981.4
20210614012836 76 275 0.0 2.0 0.00 0.00 0.00 49 981.3
20210614005836 82 275 0.0 0.0 0.00 0.00 0.00 44 981.1
20210614002806 85 113 0.0 3.0 0.00 0.00 0.00 27 981.1
20210613235833 88 220 2.0 4.0 0.00 0.00 0.00 25 981.4
20210613232804 89 133 0.0 5.0 0.00 0.00 0.00 26 981.4
20210613225834 90 61 0.0 4.0 0.00 0.00 0.00 24 981.8
20210613222834 90 216 1.0 10.0 0.00 0.00 0.00 24 981.6
20210613215834 91 15 1.0 6.0 0.00 0.00 0.00 23 981.9
20210613212834 91 207 2.0 4.0 0.00 0.00 0.00 25 982.1
20210613205834 90 9 4.0 6.0 0.00 0.00 0.00 25 982.2
20210613202834 89 19 2.0 9.0 0.00 0.00 0.00 24 982.7
20210613195834 89 128 1.0 7.0 0.00 0.00 0.00 28 982.8
20210613192804 89 196 3.0 4.0 0.00 0.00 0.00 26 983.2
20210613185833 88 78 8.0 9.0 0.00 0.00 0.00 27 983.4